Time;durP1;ratioP1;P1;durP2;ratioP2;P2;SDS_P1;SDS_P2;PMS_P1;PMS_P2;Temp;Humidity;BMP_temperature;BMP_pressure;BME280_temperature;BME280_humidity;BME280_pressure;Samples;Min_cycle;Max_cycle;Signal;HPM_P1;HPM_P2
2023/12/24 00:01:32;;;;;;;4.20;0.95;;;;;;;10.92;88.37;100458.56;5028815;28;20092;-67
2023/12/24 00:03:57;;;;;;;3.55;0.65;;;;;;;10.87;88.75;100462.97;5054139;28;20030;-68
2023/12/24 00:06:23;;;;;;;3.60;0.60;;;;;;;10.85;88.97;100458.69;5027772;28;20094;-68
2023/12/24 00:08:49;;;;;;;3.55;0.50;;;;;;;10.83;89.16;100457.88;5024071;28;20124;-66
2023/12/24 00:11:14;;;;;;;2.85;0.60;;;;;;;10.85;89.72;100462.16;5058786;28;20484;-68
2023/12/24 00:13:39;;;;;;;1.67;0.82;;;;;;;10.85;89.79;100474.22;5030229;28;20068;-68
2023/12/24 00:16:05;;;;;;;2.85;0.50;;;;;;;10.90;88.96;100455.16;5008400;28;20041;-68
2023/12/24 00:18:31;;;;;;;0.80;0.50;;;;;;;10.95;89.06;100460.28;5064038;28;20041;-68
2023/12/24 00:20:56;;;;;;;1.08;0.60;;;;;;;10.90;89.81;100475.84;5025479;28;20037;-67
2023/12/24 00:23:21;;;;;;;0.73;0.50;;;;;;;10.91;89.51;100458.59;5024786;28;21025;-68
2023/12/24 00:25:47;;;;;;;2.80;0.52;;;;;;;10.92;89.87;100471.50;5023735;28;20041;-68
2023/12/24 00:28:12;;;;;;;1.30;0.65;;;;;;;10.95;89.66;100460.28;5029690;28;20046;-68
2023/12/24 00:30:38;;;;;;;0.73;0.43;;;;;;;10.90;89.66;100460.34;5024493;28;20110;-68
2023/12/24 00:33:04;;;;;;;0.75;0.40;;;;;;;10.89;90.66;100468.97;5056378;28;20567;-68
2023/12/24 00:35:31;;;;;;;0.45;0.30;;;;;;;10.88;90.32;100461.25;5024331;28;20033;-68
2023/12/24 00:37:58;;;;;;;0.32;0.30;;;;;;;10.88;90.30;100459.50;5041844;28;20503;-67
2023/12/24 00:40:24;;;;;;;0.73;0.30;;;;;;;10.88;89.96;100456.94;5025183;28;20041;-68
2023/12/24 00:42:49;;;;;;;0.25;0.20;;;;;;;10.95;89.38;100444.78;5023629;28;20037;-68
2023/12/24 00:45:15;;;;;;;1.10;0.20;;;;;;;10.93;88.80;100441.31;5026738;28;20669;-68
2023/12/24 00:47:40;;;;;;;1.50;0.30;;;;;;;10.99;88.65;100431.75;5021925;28;20405;-67
2023/12/24 00:50:07;;;;;;;0.40;0.30;;;;;;;11.00;88.43;100433.47;5054849;28;20089;-68
2023/12/24 00:52:33;;;;;;;0.55;0.20;;;;;;;11.04;88.15;100426.53;5055542;28;20025;-68
2023/12/24 00:54:59;;;;;;;0.85;0.20;;;;;;;11.01;88.24;100434.34;5010930;28;20041;-67
2023/12/24 00:57:24;;;;;;;1.02;0.40;;;;;;;10.97;88.65;100430.94;5055946;28;20552;-67
2023/12/24 00:59:50;;;;;;;0.30;0.20;;;;;;;10.95;88.57;100435.25;5026883;28;20431;-68
2023/12/24 01:02:15;;;;;;;0.80;0.17;;;;;;;10.95;88.57;100429.25;5026421;28;20033;-68
2023/12/24 01:04:41;;;;;;;0.10;0.10;;;;;;;10.94;89.06;100430.97;5057645;28;20040;-68
2023/12/24 01:07:06;;;;;;;0.20;0.20;;;;;;;10.97;88.37;100427.50;5040771;28;20040;-68
2023/12/24 01:09:32;;;;;;;1.42;0.22;;;;;;;10.96;88.68;100431.81;5021964;28;20034;-67
2023/12/24 01:11:57;;;;;;;1.17;0.10;;;;;;;10.93;88.92;100426.69;5056205;28;20415;-68
2023/12/24 01:14:23;;;;;;;0.17;0.10;;;;;;;10.94;89.30;100427.53;5058648;28;20045;-68
2023/12/24 01:16:48;;;;;;;0.43;0.20;;;;;;;10.90;89.87;100431.88;5026549;28;20239;-68
2023/12/24 01:19:14;;;;;;;0.90;0.10;;;;;;;10.90;89.55;100436.19;5039971;28;20512;-67
2023/12/24 01:21:39;;;;;;;0.32;0.20;;;;;;;10.90;89.79;100438.78;5028290;28;20120;-68
2023/12/24 01:24:06;;;;;;;0.10;0.10;;;;;;;10.90;89.87;100444.81;5031184;28;20048;-68
2023/12/24 01:26:34;;;;;;;1.40;0.28;;;;;;;10.93;89.97;100441.31;5030359;28;20485;-64
2023/12/24 01:29:00;;;;;;;1.00;0.20;;;;;;;10.89;90.10;100443.09;5023400;28;20532;-67
2023/12/24 01:31:27;;;;;;;0.17;0.17;;;;;;;10.89;90.50;100434.50;5026042;28;20104;-68
2023/12/24 01:33:52;;;;;;;1.20;0.10;;;;;;;10.90;89.71;100437.06;5024578;28;20033;-67
2023/12/24 01:36:19;;;;;;;0.28;0.10;;;;;;;10.94;89.66;100427.53;5027778;28;20045;-67
2023/12/24 01:38:45;;;;;;;1.00;0.30;;;;;;;10.98;89.38;100437.78;5028666;28;20465;-67
2023/12/24 01:41:10;;;;;;;0.82;0.40;;;;;;;11.03;88.87;100427.41;5042668;28;20057;-67
2023/12/24 01:43:35;;;;;;;0.30;0.17;;;;;;;11.05;88.61;100433.38;5027783;28;20030;-68
2023/12/24 01:46:02;;;;;;;0.30;0.30;;;;;;;11.04;88.97;100439.47;5008945;28;20499;-68
2023/12/24 01:48:28;;;;;;;0.00;0.00;;;;;;;11.01;88.94;100439.50;5005518;28;20041;-68
2023/12/24 01:50:54;;;;;;;0.45;0.17;;;;;;;11.04;88.79;100445.47;5027207;28;20698;-68
2023/12/24 01:53:19;;;;;;;0.10;0.10;;;;;;;11.00;89.50;100442.97;5026445;28;20045;-67
2023/12/24 01:55:47;;;;;;;1.05;0.10;;;;;;;11.01;89.31;100439.50;5029582;28;20055;-67
2023/12/24 01:58:13;;;;;;;0.20;0.10;;;;;;;11.01;89.21;100440.34;5023782;28;20788;-67
2023/12/24 02:00:41;;;;;;;1.02;0.10;;;;;;;10.99;90.72;100441.25;5023733;28;20090;-67
2023/12/24 02:03:08;;;;;;;0.10;0.10;;;;;;;10.95;90.35;100435.25;5025207;28;20818;-67
2023/12/24 02:05:35;;;;;;;0.35;0.20;;;;;;;10.93;90.49;100418.91;5038447;28;20048;-67
2023/12/24 02:08:02;;;;;;;0.20;0.20;;;;;;;10.88;90.76;100425.91;5007133;28;20061;-67
2023/12/24 02:10:29;;;;;;;0.20;0.10;;;;;;;10.88;90.84;100410.38;5025739;28;20041;-67
2023/12/24 02:12:54;;;;;;;0.38;0.13;;;;;;;10.85;91.61;100413.03;5053213;28;20087;-67
2023/12/24 02:15:20;;;;;;;0.15;0.10;;;;;;;10.87;90.46;100390.56;5038657;28;20728;-67
2023/12/24 02:17:46;;;;;;;0.15;0.10;;;;;;;10.86;91.21;100391.44;5039300;28;20072;-67
2023/12/24 02:20:12;;;;;;;0.10;0.10;;;;;;;10.85;91.38;100381.13;5022775;28;20032;-67
2023/12/24 02:22:37;;;;;;;0.65;0.10;;;;;;;10.83;91.43;100365.66;5058391;28;20032;-67
2023/12/24 02:25:04;;;;;;;0.10;0.10;;;;;;;10.83;91.02;100352.72;5029028;28;20037;-68
2023/12/24 02:27:39;;;;;;;0.52;0.20;;;;;;;10.84;90.97;100340.63;5026205;28;20028;-67
2023/12/24 02:30:23;;;;;;;0.22;0.10;;;;;;;10.85;90.87;100342.34;5055083;28;20030;-67
2023/12/24 02:32:59;;;;;;;0.68;0.30;;;;;;;10.83;90.98;100333.78;5054404;28;20029;-67
2023/12/24 02:35:32;;;;;;;0.50;0.30;;;;;;;10.84;90.43;100336.31;5057512;28;20535;-67
2023/12/24 02:37:57;;;;;;;0.15;0.10;;;;;;;10.86;90.66;100346.66;5023283;28;20041;-68
2023/12/24 02:40:22;;;;;;;0.38;0.20;;;;;;;10.86;90.59;100344.91;5026935;28;20103;-67
2023/12/24 02:42:48;;;;;;;0.50;0.15;;;;;;;10.88;89.89;100343.16;5027579;28;20809;-67
2023/12/24 02:45:13;;;;;;;0.00;0.00;;;;;;;10.91;89.87;100345.69;5057467;28;20815;-67
2023/12/24 02:47:39;;;;;;;0.10;0.10;;;;;;;10.90;89.98;100345.69;5040791;28;20694;-67
2023/12/24 02:50:05;;;;;;;0.10;0.10;;;;;;;10.88;90.41;100340.56;5058510;28;20086;-67
2023/12/24 02:52:31;;;;;;;0.17;0.10;;;;;;;10.89;90.00;100337.09;5030021;28;20014;-67
2023/12/24 02:54:57;;;;;;;0.20;0.20;;;;;;;10.90;90.10;100341.38;5058601;28;20403;-66
2023/12/24 02:57:23;;;;;;;0.75;0.10;;;;;;;10.91;89.61;100332.75;5055682;28;20060;-67
2023/12/24 02:59:48;;;;;;;0.98;0.10;;;;;;;10.93;90.12;100335.31;5057734;28;20523;-67
2023/12/24 03:02:14;;;;;;;0.20;0.10;;;;;;;10.93;89.97;100341.34;5026655;28;20120;-67
2023/12/24 03:04:39;;;;;;;0.15;0.10;;;;;;;10.98;89.96;100328.34;5041235;28;20500;-67
2023/12/24 03:07:05;;;;;;;0.75;0.20;;;;;;;10.98;89.84;100318.84;5029504;28;20582;-67
2023/12/24 03:09:31;;;;;;;0.28;0.10;;;;;;;10.99;89.95;100320.56;5061146;28;20131;-67
2023/12/24 03:11:56;;;;;;;0.10;0.10;;;;;;;11.01;90.34;100310.19;5028597;28;20044;-67
2023/12/24 03:14:22;;;;;;;1.50;0.20;;;;;;;11.05;89.75;100314.41;5009972;28;20423;-67
2023/12/24 03:16:48;;;;;;;0.40;0.10;;;;;;;11.07;90.06;100310.09;5029656;28;22241;-67
2023/12/24 03:19:14;;;;;;;0.03;0.03;;;;;;;11.07;89.90;100303.16;5027993;28;20046;-67
2023/12/24 03:21:42;;;;;;;0.40;0.10;;;;;;;11.04;90.68;100308.38;5040359;28;20041;-67
2023/12/24 03:24:08;;;;;;;1.38;0.20;;;;;;;11.08;90.14;100304.03;5027231;28;20090;-67
2023/12/24 03:26:34;;;;;;;0.17;0.10;;;;;;;11.06;90.80;100308.38;5030039;28;20052;-67
2023/12/24 03:29:02;;;;;;;0.10;0.10;;;;;;;11.05;91.14;100296.31;5056363;28;20472;-67
2023/12/24 03:31:28;;;;;;;0.52;0.20;;;;;;;11.02;92.13;100304.97;5037185;28;20519;-67
2023/12/24 03:33:54;;;;;;;0.63;0.20;;;;;;;11.02;91.69;100298.94;5057643;28;20213;-67
2023/12/24 03:36:19;;;;;;;0.10;0.10;;;;;;;11.00;92.03;100296.41;5041777;28;20412;-67
2023/12/24 03:38:45;;;;;;;0.15;0.10;;;;;;;10.98;92.15;100292.97;5045692;28;20116;-67
2023/12/24 03:41:11;;;;;;;0.32;0.13;;;;;;;10.99;91.82;100289.53;5029794;28;20052;-67
2023/12/24 03:43:36;;;;;;;0.10;0.10;;;;;;;11.01;91.80;100292.09;5009901;28;20444;-67
2023/12/24 03:46:02;;;;;;;1.23;0.13;;;;;;;11.01;92.06;100284.34;5058747;28;20511;-67
2023/12/24 03:48:29;;;;;;;0.10;0.10;;;;;;;11.02;92.08;100286.03;5061709;28;20033;-67
2023/12/24 03:50:55;;;;;;;0.40;0.13;;;;;;;10.98;93.02;100295.56;5027177;28;20053;-67
2023/12/24 03:53:20;;;;;;;1.33;0.20;;;;;;;10.94;93.97;100306.00;5009697;28;20041;-67
2023/12/24 03:55:46;;;;;;;0.60;0.20;;;;;;;10.91;94.21;100306.06;5022330;28;20107;-67
2023/12/24 03:58:11;;;;;;;0.13;0.13;;;;;;;10.86;95.81;100305.28;5060048;28;20501;-67
2023/12/24 04:00:36;;;;;;;0.20;0.10;;;;;;;10.74;98.33;100306.34;5030442;28;20029;-67
2023/12/24 04:03:02;;;;;;;1.08;0.30;;;;;;;10.61;100.00;100291.91;5026110;28;21918;-67
2023/12/24 04:05:27;;;;;;;0.13;0.13;;;;;;;10.50;100.00;100289.50;5028746;28;20052;-67
2023/12/24 04:07:53;;;;;;;0.00;0.00;;;;;;;10.40;100.00;100287.94;5061218;28;20036;-67
2023/12/24 04:10:18;;;;;;;0.20;0.20;;;;;;;10.31;100.00;100282.03;5028732;28;20078;-67
2023/12/24 04:12:44;;;;;;;0.20;0.17;;;;;;;10.28;100.00;100284.66;5027353;28;20129;-67
2023/12/24 04:15:10;;;;;;;0.55;0.20;;;;;;;10.20;100.00;100282.22;5038839;28;20060;-68
2023/12/24 04:17:35;;;;;;;0.20;0.20;;;;;;;10.17;100.00;100284.84;5027308;28;20080;-67
2023/12/24 04:20:05;;;;;;;0.45;0.20;;;;;;;10.09;100.00;100279.75;5026503;28;20099;-68
2023/12/24 04:22:31;;;;;;;0.20;0.20;;;;;;;10.09;100.00;100284.06;5026778;28;20044;-67
2023/12/24 04:24:58;;;;;;;0.43;0.20;;;;;;;10.07;100.00;100280.66;5058235;28;20061;-68
2023/12/24 04:27:23;;;;;;;0.17;0.17;;;;;;;10.09;100.00;100278.91;5045533;28;20045;-67
2023/12/24 04:29:49;;;;;;;0.10;0.10;;;;;;;10.05;100.00;100287.59;5035999;28;20034;-67
2023/12/24 04:32:16;;;;;;;0.40;0.20;;;;;;;10.00;100.00;100279.88;5018098;28;20029;-68
2023/12/24 04:34:42;;;;;;;0.63;0.22;;;;;;;9.98;100.00;100276.47;5038998;28;20028;-68
2023/12/24 04:37:07;;;;;;;0.10;0.10;;;;;;;10.02;100.00;100279.88;5038455;28;20041;-68
2023/12/24 04:39:33;;;;;;;0.52;0.52;;;;;;;10.00;100.00;100277.31;5023533;28;20049;-68
2023/12/24 04:41:58;;;;;;;0.40;0.20;;;;;;;9.99;100.00;100278.19;5026582;28;20124;-67
2023/12/24 04:44:24;;;;;;;0.38;0.13;;;;;;;9.96;100.00;100264.47;5023390;28;20526;-68
2023/12/24 04:46:50;;;;;;;0.10;0.10;;;;;;;9.98;100.00;100260.13;5026520;28;20037;-68
2023/12/24 04:49:15;;;;;;;0.10;0.10;;;;;;;9.97;100.00;100261.03;5025123;28;20034;-68
2023/12/24 04:51:41;;;;;;;0.20;0.10;;;;;;;9.95;100.00;100255.88;5024214;28;20574;-68
2023/12/24 04:54:06;;;;;;;0.22;0.22;;;;;;;9.94;100.00;100258.50;5036939;28;20793;-68
2023/12/24 04:56:32;;;;;;;0.20;0.20;;;;;;;9.91;100.00;100250.78;5024664;28;20033;-68
2023/12/24 04:58:58;;;;;;;0.40;0.20;;;;;;;9.92;100.00;100235.25;5056699;28;20036;-68
2023/12/24 05:01:24;;;;;;;0.25;0.20;;;;;;;9.91;100.00;100243.03;5041096;28;20040;-68
2023/12/24 05:03:49;;;;;;;0.30;0.20;;;;;;;9.92;100.00;100240.44;5025920;28;20554;-68
2023/12/24 05:06:15;;;;;;;0.35;0.20;;;;;;;9.92;100.00;100239.56;5058613;28;20038;-68
2023/12/24 05:08:41;;;;;;;0.10;0.10;;;;;;;9.94;100.00;100230.91;5027638;28;20505;-68
2023/12/24 05:11:07;;;;;;;0.35;0.10;;;;;;;9.95;100.00;100234.34;5028886;28;20037;-68
2023/12/24 05:13:33;;;;;;;0.32;0.10;;;;;;;9.96;100.00;100246.41;5026388;28;20037;-68
2023/12/24 05:15:59;;;;;;;0.28;0.10;;;;;;;9.94;100.00;100237.84;5022320;28;20069;-68
2023/12/24 05:18:24;;;;;;;1.65;0.10;;;;;;;9.95;100.00;100242.09;5006841;28;20113;-68
2023/12/24 05:20:49;;;;;;;0.10;0.10;;;;;;;9.93;100.00;100243.88;5021825;28;20064;-68
2023/12/24 05:23:17;;;;;;;0.65;0.30;;;;;;;9.95;100.00;100245.53;5023645;28;20033;-68
2023/12/24 05:25:42;;;;;;;0.30;0.30;;;;;;;9.92;100.00;100231.81;5023907;28;20037;-68
2023/12/24 05:28:09;;;;;;;0.10;0.10;;;;;;;9.91;100.00;100238.72;5022012;28;20037;-68
2023/12/24 05:30:34;;;;;;;0.15;0.15;;;;;;;9.95;100.00;100236.94;5055201;28;20037;-68
2023/12/24 05:33:00;;;;;;;0.10;0.10;;;;;;;9.91;100.00;100240.47;5022031;28;20802;-68
2023/12/24 05:35:25;;;;;;;1.65;0.10;;;;;;;9.90;100.00;100238.75;5037764;28;20128;-68
2023/12/24 05:37:51;;;;;;;0.30;0.20;;;;;;;9.92;100.00;100236.97;5039587;28;20033;-68
2023/12/24 05:40:16;;;;;;;0.20;0.20;;;;;;;9.91;100.00;100233.53;5024170;28;20034;-68
2023/12/24 05:42:42;;;;;;;0.40;0.10;;;;;;;9.92;100.00;100235.25;5058012;28;20213;-68
2023/12/24 05:45:11;;;;;;;0.10;0.10;;;;;;;9.91;100.00;100233.53;5023488;28;20443;-68
2023/12/24 05:47:37;;;;;;;0.15;0.15;;;;;;;9.94;100.00;100237.84;5057749;28;20041;-68
2023/12/24 05:50:07;;;;;;;0.40;0.17;;;;;;;9.97;100.00;100236.03;5021242;28;20033;-68
2023/12/24 05:52:33;;;;;;;0.10;0.10;;;;;;;10.03;100.00;100235.13;5027636;28;20125;-68
2023/12/24 05:54:58;;;;;;;0.22;0.10;;;;;;;10.02;100.00;100233.41;5041803;28;20116;-68
2023/12/24 05:57:24;;;;;;;0.10;0.10;;;;;;;10.00;100.00;100233.41;5064042;28;20025;-68
2023/12/24 05:59:49;;;;;;;1.48;0.10;;;;;;;10.03;100.00;100228.22;5009559;28;20046;-69
2023/12/24 06:02:14;;;;;;;0.45;0.10;;;;;;;10.03;100.00;100224.78;5054446;28;20021;-69
2023/12/24 06:04:40;;;;;;;0.17;0.17;;;;;;;10.03;100.00;100229.97;5024647;28;20120;-68
2023/12/24 06:07:06;;;;;;;0.57;0.40;;;;;;;10.05;100.00;100231.63;5037702;28;20069;-68
2023/12/24 06:09:31;;;;;;;0.32;0.10;;;;;;;10.06;100.00;100220.41;5037836;28;20048;-68
2023/12/24 06:11:57;;;;;;;0.10;0.10;;;;;;;10.08;100.00;100218.69;5024723;28;22269;-69
2023/12/24 06:14:22;;;;;;;0.20;0.20;;;;;;;10.11;100.00;100223.81;5053651;28;20092;-68
2023/12/24 06:16:48;;;;;;;0.47;0.30;;;;;;;10.11;100.00;100226.38;5058471;28;20046;-68
2023/12/24 06:19:13;;;;;;;0.63;0.20;;;;;;;10.11;100.00;100235.84;5057201;28;20052;-68
2023/12/24 06:21:39;;;;;;;0.10;0.10;;;;;;;10.11;100.00;100228.09;5026649;28;20056;-68
2023/12/24 06:24:04;;;;;;;0.10;0.10;;;;;;;10.12;100.00;100233.22;5026137;28;20128;-68
2023/12/24 06:26:31;;;;;;;0.10;0.10;;;;;;;10.11;100.00;100228.97;5029339;28;20049;-68
2023/12/24 06:28:57;;;;;;;0.10;0.10;;;;;;;10.15;100.00;100229.75;5027653;28;20064;-68
2023/12/24 06:31:25;;;;;;;1.30;0.10;;;;;;;10.12;100.00;100227.22;5043477;28;20049;-68
2023/12/24 06:33:51;;;;;;;0.10;0.10;;;;;;;10.10;100.00;100231.56;5025418;28;20148;-68
2023/12/24 06:36:17;;;;;;;0.10;0.10;;;;;;;10.11;100.00;100225.53;5028362;28;20567;-68
2023/12/24 06:38:43;;;;;;;0.10;0.10;;;;;;;10.11;100.00;100221.22;5028458;28;20433;-68
2023/12/24 06:41:09;;;;;;;0.17;0.10;;;;;;;10.13;100.00;100219.47;5023504;28;20026;-69
2023/12/24 06:43:35;;;;;;;0.17;0.17;;;;;;;10.16;100.00;100221.13;5022864;28;20033;-68
2023/12/24 06:46:01;;;;;;;0.20;0.20;;;;;;;10.18;100.00;100216.78;5054051;28;20275;-68
2023/12/24 06:48:26;;;;;;;1.15;0.10;;;;;;;10.23;100.00;100218.44;5026957;28;20562;-68
2023/12/24 06:50:52;;;;;;;0.10;0.10;;;;;;;10.24;100.00;100216.69;5021483;28;20496;-68
2023/12/24 06:53:17;;;;;;;0.15;0.15;;;;;;;10.27;100.00;100228.72;5025127;28;20108;-67
2023/12/24 06:55:43;;;;;;;1.23;0.20;;;;;;;10.28;100.00;100218.38;5025215;28;20116;-67
2023/12/24 06:58:08;;;;;;;0.17;0.17;;;;;;;10.35;100.00;100221.72;5053722;28;20038;-68
2023/12/24 07:00:33;;;;;;;0.55;0.20;;;;;;;10.35;100.00;100214.81;5027663;28;20506;-67
2023/12/24 07:02:59;;;;;;;0.20;0.20;;;;;;;10.36;100.00;100215.66;5058439;28;20044;-67
2023/12/24 07:05:25;;;;;;;0.13;0.10;;;;;;;10.38;100.00;100214.78;5026946;28;20114;-67
2023/12/24 07:07:50;;;;;;;0.20;0.20;;;;;;;10.43;100.00;100202.63;5028685;28;20033;-66
2023/12/24 07:10:16;;;;;;;0.88;0.25;;;;;;;10.43;100.00;100204.34;5029558;28;20447;-67
2023/12/24 07:12:41;;;;;;;0.13;0.10;;;;;;;10.45;100.00;100212.91;5060508;28;20055;-67
2023/12/24 07:15:07;;;;;;;0.35;0.20;;;;;;;10.44;100.00;100199.16;5026669;28;20048;-68
2023/12/24 07:17:33;;;;;;;0.60;0.10;;;;;;;10.49;100.00;100212.00;5027749;28;20492;-68
2023/12/24 07:19:59;;;;;;;0.10;0.10;;;;;;;10.52;100.00;100202.47;5031650;28;20033;-68
2023/12/24 07:22:25;;;;;;;1.05;0.25;;;;;;;10.56;100.00;100204.13;5026170;28;20120;-68
2023/12/24 07:24:50;;;;;;;0.20;0.20;;;;;;;10.61;100.00;100199.72;5031650;28;20552;-68
2023/12/24 07:27:16;;;;;;;0.20;0.20;;;;;;;10.63;100.00;100207.44;5063793;28;20381;-67
2023/12/24 07:29:41;;;;;;;0.28;0.20;;;;;;;10.68;100.00;100197.88;5059951;28;20544;-67
2023/12/24 07:32:07;;;;;;;0.20;0.20;;;;;;;10.66;100.00;100197.03;5028415;28;20040;-67
2023/12/24 07:34:32;;;;;;;0.10;0.10;;;;;;;10.66;100.00;100195.31;5032674;28;20028;-68
2023/12/24 07:36:58;;;;;;;0.35;0.32;;;;;;;10.70;100.00;100198.69;5036298;28;20040;-67
2023/12/24 07:39:23;;;;;;;0.88;0.30;;;;;;;10.72;100.00;100194.34;5064991;28;20037;-67
2023/12/24 07:41:50;;;;;;;0.80;0.38;;;;;;;10.77;100.00;100195.97;5059294;28;20041;-67
2023/12/24 07:44:15;;;;;;;0.45;0.28;;;;;;;10.80;100.00;100192.50;5029372;28;20496;-67
2023/12/24 07:46:41;;;;;;;0.20;0.17;;;;;;;10.83;100.00;100200.19;5025584;28;20042;-67
2023/12/24 07:49:06;;;;;;;0.63;0.20;;;;;;;10.88;100.00;100206.13;5030692;28;20084;-67
2023/12/24 07:51:33;;;;;;;0.22;0.10;;;;;;;10.91;100.00;100205.22;5024171;28;20233;-67
2023/12/24 07:53:59;;;;;;;0.10;0.10;;;;;;;10.95;100.00;100197.34;5024693;28;20052;-67
2023/12/24 07:56:24;;;;;;;0.10;0.10;;;;;;;10.99;100.00;100200.75;5025284;28;20240;-67
2023/12/24 07:58:50;;;;;;;0.03;0.03;;;;;;;10.99;100.00;100201.59;5027179;28;20725;-67
2023/12/24 08:01:15;;;;;;;0.10;0.10;;;;;;;10.98;100.00;100194.72;5028795;28;20048;-67
2023/12/24 08:03:41;;;;;;;0.10;0.10;;;;;;;10.98;100.00;100196.47;5028888;28;20508;-68
2023/12/24 08:06:06;;;;;;;0.35;0.10;;;;;;;10.94;100.00;100195.66;5007516;28;20029;-68
2023/12/24 08:08:32;;;;;;;0.15;0.10;;;;;;;10.95;100.00;100201.69;5057486;28;20032;-68
2023/12/24 08:10:57;;;;;;;0.10;0.10;;;;;;;10.95;100.00;100188.78;5025039;28;20060;-68
2023/12/24 08:13:23;;;;;;;0.40;0.17;;;;;;;10.99;100.00;100198.16;5028242;28;20389;-67
2023/12/24 08:15:48;;;;;;;0.10;0.10;;;;;;;11.07;100.00;100193.72;5024562;28;20025;-68
2023/12/24 08:18:14;;;;;;;0.10;0.10;;;;;;;11.09;100.00;100187.63;5055915;28;20042;-68
2023/12/24 08:20:39;;;;;;;0.17;0.17;;;;;;;11.13;100.00;100185.78;5028118;28;20037;-67
2023/12/24 08:23:07;;;;;;;1.00;0.10;;;;;;;11.16;100.00;100183.16;5025739;28;20033;-68
2023/12/24 08:25:32;;;;;;;0.70;0.20;;;;;;;11.18;100.00;100187.44;5040193;28;20033;-68
2023/12/24 08:27:59;;;;;;;0.20;0.10;;;;;;;11.21;100.00;100187.38;5025913;28;20029;-68
2023/12/24 08:30:25;;;;;;;0.10;0.10;;;;;;;11.24;100.00;100189.03;5026530;28;20090;-67
2023/12/24 08:32:51;;;;;;;0.25;0.25;;;;;;;11.25;100.00;100186.41;5025232;28;20427;-68
2023/12/24 08:35:16;;;;;;;0.30;0.20;;;;;;;11.33;100.00;100189.72;5026772;28;20029;-68
2023/12/24 08:37:42;;;;;;;0.15;0.15;;;;;;;11.35;100.00;100172.41;5057766;28;20574;-68
2023/12/24 08:40:08;;;;;;;0.13;0.13;;;;;;;11.37;100.00;100185.31;5021206;28;20518;-67
2023/12/24 08:42:33;;;;;;;0.15;0.00;;;;;;;11.42;100.00;100180.06;5029091;28;20071;-67
2023/12/24 08:44:59;;;;;;;0.32;0.20;;;;;;;11.43;100.00;100186.91;5027585;28;20064;-68
2023/12/24 08:47:24;;;;;;;0.20;0.20;;;;;;;11.44;100.00;100184.34;5027384;28;20037;-68
2023/12/24 08:49:50;;;;;;;0.20;0.20;;;;;;;11.47;100.00;100192.03;5060132;28;20029;-68
2023/12/24 08:52:15;;;;;;;0.20;0.20;;;;;;;11.48;100.00;100182.53;5024044;28;20038;-68
2023/12/24 08:54:41;;;;;;;0.20;0.20;;;;;;;11.54;99.51;100191.03;5055662;28;20076;-68
2023/12/24 08:57:07;;;;;;;0.10;0.10;;;;;;;11.53;99.96;100197.09;5056733;28;20451;-68
2023/12/24 08:59:32;;;;;;;0.10;0.10;;;;;;;11.51;100.00;100196.28;5023717;28;20025;-67
2023/12/24 09:01:58;;;;;;;1.10;0.30;;;;;;;11.43;100.00;100200.75;5026708;28;20566;-68
2023/12/24 09:04:23;;;;;;;0.20;0.20;;;;;;;11.45;100.00;100199.00;5027281;28;20531;-68
2023/12/24 09:06:49;;;;;;;0.28;0.20;;;;;;;11.46;100.00;100197.22;5013788;28;20129;-68
2023/12/24 09:09:14;;;;;;;0.20;0.10;;;;;;;11.42;100.00;100198.16;5059839;28;20517;-68
2023/12/24 09:11:40;;;;;;;0.10;0.10;;;;;;;11.38;100.00;100188.75;5027029;28;20373;-68
2023/12/24 09:14:06;;;;;;;0.20;0.20;;;;;;;11.38;100.00;100192.19;5009317;28;20060;-68
2023/12/24 09:16:32;;;;;;;0.10;0.10;;;;;;;11.44;100.00;100186.94;5022139;28;20036;-68
2023/12/24 09:18:58;;;;;;;0.10;0.10;;;;;;;11.42;100.00;100199.03;5024399;28;20132;-68
2023/12/24 09:21:23;;;;;;;0.10;0.10;;;;;;;11.44;100.00;100181.75;5058422;28;20031;-68
2023/12/24 09:23:49;;;;;;;0.10;0.10;;;;;;;11.43;100.00;100202.44;5004429;28;20461;-68
2023/12/24 09:26:14;;;;;;;0.38;0.20;;;;;;;11.43;100.00;100194.66;5034394;28;20633;-68
2023/12/24 09:28:40;;;;;;;0.30;0.25;;;;;;;11.47;100.00;100193.78;5057263;28;20036;-68
2023/12/24 09:31:05;;;;;;;0.30;0.20;;;;;;;11.51;100.00;100192.84;5057034;28;20157;-67
2023/12/24 09:33:32;;;;;;;2.33;0.50;;;;;;;11.53;100.00;100193.63;5028729;28;20049;-67
2023/12/24 09:35:57;;;;;;;0.38;0.20;;;;;;;11.56;99.49;100173.72;5030484;28;20492;-68
2023/12/24 09:38:23;;;;;;;0.20;0.17;;;;;;;11.60;99.14;100183.13;5026205;28;20040;-67
2023/12/24 09:40:49;;;;;;;0.32;0.25;;;;;;;11.63;98.48;100190.84;5028797;28;20033;-68
2023/12/24 09:43:14;;;;;;;0.22;0.20;;;;;;;11.69;98.53;100198.44;5027646;28;20119;-68
2023/12/24 09:45:40;;;;;;;0.10;0.10;;;;;;;11.70;98.18;100201.88;5023474;28;20026;-68
2023/12/24 09:48:06;;;;;;;0.03;0.03;;;;;;;11.78;97.44;100180.13;5058509;28;20408;-68
2023/12/24 09:50:31;;;;;;;0.20;0.10;;;;;;;11.83;97.53;100187.78;5025312;28;20061;-67
2023/12/24 09:52:58;;;;;;;0.10;0.10;;;;;;;11.83;97.44;100186.06;5023060;28;20037;-68
2023/12/24 09:55:24;;;;;;;0.10;0.10;;;;;;;11.87;96.80;100187.69;5025276;28;20033;-67
2023/12/24 09:57:49;;;;;;;0.10;0.10;;;;;;;11.89;96.75;100177.31;5021628;28;20511;-68
2023/12/24 10:00:15;;;;;;;0.90;0.20;;;;;;;11.96;96.03;100173.66;5021500;28;20153;-67
2023/12/24 10:02:41;;;;;;;0.30;0.20;;;;;;;12.01;94.98;100177.00;5019719;28;20061;-68
2023/12/24 10:05:07;;;;;;;1.55;0.20;;;;;;;12.05;95.85;100199.34;5057465;28;20538;-68
2023/12/24 10:07:39;;;;;;;0.10;0.10;;;;;;;12.12;94.81;100192.28;5032550;28;20041;-67
2023/12/24 10:10:07;;;;;;;0.10;0.10;;;;;;;12.18;94.16;100185.22;5023814;28;20136;-68
2023/12/24 10:12:33;;;;;;;0.82;0.30;;;;;;;12.20;94.66;100190.34;5025257;28;20048;-67
2023/12/24 10:14:58;;;;;;;0.10;0.10;;;;;;;12.24;93.89;100185.09;5025215;28;20049;-68
2023/12/24 10:17:32;;;;;;;0.00;0.00;;;;;;;12.25;93.53;100185.94;5057509;28;20429;-67
2023/12/24 10:20:03;;;;;;;0.30;0.10;;;;;;;12.25;93.97;100193.72;5024147;28;20515;-68
2023/12/24 10:22:28;;;;;;;0.10;0.10;;;;;;;12.24;93.92;100177.31;5027021;28;20103;-68
2023/12/24 10:25:02;;;;;;;0.10;0.10;;;;;;;12.22;94.81;100188.59;5023232;28;20064;-67
2023/12/24 10:27:28;;;;;;;0.20;0.20;;;;;;;12.22;94.29;100180.84;5056251;28;20047;-67
2023/12/24 10:30:06;;;;;;;0.13;0.10;;;;;;;12.25;94.13;100178.16;5023975;28;20038;-67
2023/12/24 10:32:32;;;;;;;0.20;0.10;;;;;;;12.25;94.11;100172.97;5023478;28;20037;-68
2023/12/24 10:34:57;;;;;;;0.38;0.20;;;;;;;12.24;94.12;100161.75;5022907;28;20033;-67
2023/12/24 10:37:29;;;;;;;0.52;0.20;;;;;;;12.25;94.48;100170.41;5023765;28;20044;-67
2023/12/24 10:40:12;;;;;;;0.43;0.22;;;;;;;12.25;94.31;100163.47;5020572;28;20044;-67
2023/12/24 10:42:39;;;;;;;1.45;0.20;;;;;;;12.27;94.21;100173.78;5025687;28;20129;-68
2023/12/24 10:45:08;;;;;;;0.32;0.10;;;;;;;12.28;93.74;100171.19;5060593;28;20033;-68
2023/12/24 10:47:35;;;;;;;0.40;0.28;;;;;;;12.29;94.24;100166.81;5022257;28;20038;-68
2023/12/24 10:50:03;;;;;;;0.57;0.17;;;;;;;12.30;94.10;100171.13;5035329;28;20033;-68
2023/12/24 10:52:29;;;;;;;0.13;0.13;;;;;;;12.34;92.94;100147.69;5029095;28;20068;-68
2023/12/24 10:54:57;;;;;;;1.52;0.88;;;;;;;12.37;93.68;100155.41;5032856;28;20136;-67
2023/12/24 10:57:47;;;;;;;5.28;3.65;;;;;;;12.33;94.21;100161.53;5028168;28;20057;-67
2023/12/24 11:00:14;;;;;;;4.53;2.38;;;;;;;12.33;94.53;100156.34;5028718;28;20033;-67
2023/12/24 11:02:47;;;;;;;1.15;0.57;;;;;;;12.40;93.21;100144.94;5026071;28;20037;-68
2023/12/24 11:05:46;;;;;;;0.40;0.40;;;;;;;12.42;93.92;100158.72;5063199;28;20022;-66
2023/12/24 11:08:20;;;;;;;1.20;0.10;;;;;;;12.45;93.10;100145.69;5024842;28;20517;-67
2023/12/24 11:10:56;;;;;;;0.40;0.40;;;;;;;12.48;93.45;100151.66;5028531;28;20037;-67
2023/12/24 11:13:34;;;;;;;0.20;0.20;;;;;;;12.48;93.48;100149.06;5059482;28;20496;-68
2023/12/24 11:16:01;;;;;;;4.03;0.25;;;;;;;12.50;94.00;100157.66;5029181;28;20159;-67
2023/12/24 11:18:41;;;;;;;0.40;0.15;;;;;;;12.49;94.50;100149.03;5020707;28;20041;-67